Time;durP1;ratioP1;P1;durP2;ratioP2;P2;SDS_P1;SDS_P2;PMS_P1;PMS_P2;Temp;Humidity;BMP_temperature;BMP_pressure;BME280_temperature;BME280_humidity;BME280_pressure;Samples;Min_cycle;Max_cycle;Signal;HPM_P1;HPM_P2
2023/08/17 00:01:23;;;;;;;;;;;;;;;16.79;53.98;100682.31;5078242;28;1073;-58
2023/08/17 00:03:48;;;;;;;;;;;;;;;16.83;54.13;100677.91;5078559;28;1050;-57
2023/08/17 00:06:14;;;;;;;;;;;;;;;16.79;54.00;100685.06;5079238;28;1902;-58
2023/08/17 00:08:39;;;;;;;;;;;;;;;16.82;54.01;100684.53;5089737;28;1114;-57
2023/08/17 00:11:05;;;;;;;;;;;;;;;16.73;54.29;100685.09;5091233;28;1042;-57
2023/08/17 00:13:30;;;;;;;;;;;;;;;16.81;54.21;100694.69;5086608;28;1050;-58
2023/08/17 00:15:56;;;;;;;;;;;;;;;16.77;54.04;100686.19;5082930;28;1173;-58
2023/08/17 00:18:21;;;;;;;;;;;;;;;16.74;54.23;100688.66;5087069;28;1119;-57
2023/08/17 00:20:48;;;;;;;;;;;;;;;16.80;53.99;100686.72;5097564;28;1030;-58
2023/08/17 00:23:13;;;;;;;;;;;;;;;16.76;54.13;100691.97;5096899;28;1126;-58
2023/08/17 00:25:39;;;;;;;;;;;;;;;16.77;53.91;100693.59;5087503;28;1006;-57
2023/08/17 00:28:04;;;;;;;;;;;;;;;16.72;54.36;100690.88;5086745;28;1984;-63
2023/08/17 00:30:31;;;;;;;;;;;;;;;16.75;53.97;100696.63;5078018;28;1197;-60
2023/08/17 00:32:57;;;;;;;;;;;;;;;16.73;53.94;100687.84;5086168;28;1161;-62
2023/08/17 00:35:22;;;;;;;;;;;;;;;16.73;54.16;100692.50;5078108;28;1493;-62
2023/08/17 00:37:48;;;;;;;;;;;;;;;16.80;54.01;100698.53;5068741;28;1178;-62
2023/08/17 00:40:14;;;;;;;;;;;;;;;16.71;53.94;100698.25;5077385;28;1275;-61
2023/08/17 00:42:39;;;;;;;;;;;;;;;16.74;54.07;100705.13;5059701;28;1166;-61
2023/08/17 00:45:05;;;;;;;;;;;;;;;16.71;54.18;100705.69;5077293;28;1070;-61
2023/08/17 00:47:31;;;;;;;;;;;;;;;16.73;54.01;100698.81;5086450;28;1890;-61
2023/08/17 00:49:56;;;;;;;;;;;;;;;16.72;53.89;100701.84;5066342;28;1202;-61
2023/08/17 00:52:22;;;;;;;;;;;;;;;16.72;54.14;100697.19;5097197;28;1150;-60
2023/08/17 00:54:47;;;;;;;;;;;;;;;16.73;53.90;100698.81;5061123;28;1023;-60
2023/08/17 00:57:13;;;;;;;;;;;;;;;16.73;53.79;100698.81;5097217;28;1035;-60
2023/08/17 00:59:38;;;;;;;;;;;;;;;16.70;53.79;100699.34;5083788;28;1022;-61
2023/08/17 01:02:04;;;;;;;;;;;;;;;16.68;53.96;100700.75;5071415;28;1126;-60
2023/08/17 01:04:30;;;;;;;;;;;;;;;16.72;53.72;100705.41;5078255;28;1058;-60
2023/08/17 01:06:56;;;;;;;;;;;;;;;16.69;53.87;100695.00;5070661;28;1909;-59
2023/08/17 01:09:21;;;;;;;;;;;;;;;16.70;54.05;100698.53;5090605;28;1297;-58
2023/08/17 01:11:48;;;;;;;;;;;;;;;16.68;54.17;100696.06;5087704;28;1131;-59
2023/08/17 01:14:19;;;;;;;;;;;;;;;16.65;54.04;100691.16;5058093;28;1153;-59
2023/08/17 01:16:50;;;;;;;;;;;;;;;16.58;54.24;100691.41;5070591;28;1143;-59
2023/08/17 01:19:27;;;;;;;;;;;;;;;16.67;54.03;100688.13;5078043;28;1158;-59
2023/08/17 01:21:54;;;;;;;;;;;;;;;16.67;53.83;100686.19;5089955;28;1063;-58
2023/08/17 01:24:21;;;;;;;;;;;;;;;16.67;53.98;100677.13;5089933;28;1224;-59
2023/08/17 01:26:46;;;;;;;;;;;;;;;16.62;53.93;100672.50;5089898;28;1897;-59
2023/08/17 01:29:12;;;;;;;;;;;;;;;16.70;53.90;100666.41;5076798;28;1120;-59
2023/08/17 01:31:47;;;;;;;;;;;;;;;16.67;53.78;100669.72;5090585;28;1043;-59
2023/08/17 01:34:18;;;;;;;;;;;;;;;16.63;53.87;100665.06;5058539;28;842;-59
2023/08/17 01:36:45;;;;;;;;;;;;;;;16.63;53.79;100665.88;5078380;28;1003;-59
2023/08/17 01:39:11;;;;;;;;;;;;;;;16.66;53.82;100661.75;5058926;28;1226;-59
2023/08/17 01:41:37;;;;;;;;;;;;;;;16.62;53.91;100664.25;5092690;28;1143;-59
2023/08/17 01:44:03;;;;;;;;;;;;;;;16.63;54.10;100676.84;5069894;28;1138;-59
2023/08/17 01:46:32;;;;;;;;;;;;;;;16.63;53.85;100668.63;5074572;28;1982;-59
2023/08/17 01:48:58;;;;;;;;;;;;;;;16.64;53.80;100667.53;5078931;28;829;-59
2023/08/17 01:51:25;;;;;;;;;;;;;;;16.60;53.89;100667.25;5079553;28;1205;-59
2023/08/17 01:53:50;;;;;;;;;;;;;;;16.62;53.99;100664.25;5086602;28;1220;-59
2023/08/17 01:56:16;;;;;;;;;;;;;;;16.61;53.88;100651.63;5078303;28;1054;-59
2023/08/17 01:58:41;;;;;;;;;;;;;;;16.57;54.16;100650.53;5074765;28;1335;-59
2023/08/17 02:01:07;;;;;;;;;;;;;;;16.62;54.03;100658.75;5065349;28;1302;-59
2023/08/17 02:03:32;;;;;;;;;;;;;;;16.61;53.96;100651.63;5096503;28;1109;-59
2023/08/17 02:05:58;;;;;;;;;;;;;;;16.56;54.05;100654.34;5095808;28;1972;-59
2023/08/17 02:08:24;;;;;;;;;;;;;;;16.57;54.02;100654.06;5089731;28;1027;-59
2023/08/17 02:10:50;;;;;;;;;;;;;;;16.61;53.94;100662.59;5089658;28;899;-59
2023/08/17 02:13:15;;;;;;;;;;;;;;;16.59;54.29;100653.78;5078620;28;1091;-59
2023/08/17 02:15:41;;;;;;;;;;;;;;;16.55;54.04;100660.94;5064573;28;1174;-59
2023/08/17 02:18:06;;;;;;;;;;;;;;;16.60;54.26;100663.69;5076472;28;1210;-59
2023/08/17 02:20:32;;;;;;;;;;;;;;;16.56;54.29;100657.09;5075862;28;1204;-59
2023/08/17 02:22:57;;;;;;;;;;;;;;;16.65;54.13;100662.84;5075795;28;897;-59
2023/08/17 02:25:23;;;;;;;;;;;;;;;16.63;54.17;100665.06;5058316;28;1086;-59
2023/08/17 02:27:51;;;;;;;;;;;;;;;16.66;53.99;100651.63;5075941;28;1922;-59
2023/08/17 02:30:16;;;;;;;;;;;;;;;16.67;53.84;100647.75;5091536;28;1086;-60
2023/08/17 02:32:42;;;;;;;;;;;;;;;16.63;54.04;100652.16;5078971;28;1128;-59
2023/08/17 02:35:07;;;;;;;;;;;;;;;16.56;54.15;100646.97;5080039;28;891;-59
2023/08/17 02:37:33;;;;;;;;;;;;;;;16.62;54.12;100653.28;5079861;28;1052;-59
2023/08/17 02:39:58;;;;;;;;;;;;;;;16.57;54.04;100654.06;5079863;28;1118;-59
2023/08/17 02:42:24;;;;;;;;;;;;;;;16.60;54.05;100655.44;5093324;28;1238;-60
2023/08/17 02:44:50;;;;;;;;;;;;;;;16.57;54.20;100651.34;5092758;28;1066;-60
2023/08/17 02:47:15;;;;;;;;;;;;;;;16.56;54.22;100655.19;5085798;28;1906;-60
2023/08/17 02:49:41;;;;;;;;;;;;;;;16.56;54.27;100654.34;5081948;28;1231;-59
2023/08/17 02:52:06;;;;;;;;;;;;;;;16.56;54.27;100657.09;5075074;28;1097;-59
2023/08/17 02:54:32;;;;;;;;;;;;;;;16.55;54.07;100658.19;5093059;28;1182;-59
2023/08/17 02:56:57;;;;;;;;;;;;;;;16.56;54.11;100657.09;5079810;28;1317;-59
2023/08/17 02:59:23;;;;;;;;;;;;;;;16.55;54.26;100653.53;5073880;28;1365;-59
2023/08/17 03:01:48;;;;;;;;;;;;;;;16.56;54.11;100651.63;5086115;28;1118;-59
2023/08/17 03:04:14;;;;;;;;;;;;;;;16.50;54.43;100655.47;5099508;28;994;-59
2023/08/17 03:06:39;;;;;;;;;;;;;;;16.54;54.34;100657.38;5093315;28;1918;-59
2023/08/17 03:09:05;;;;;;;;;;;;;;;16.50;54.47;100656.28;5079643;28;1148;-60
2023/08/17 03:11:30;;;;;;;;;;;;;;;16.56;54.06;100651.63;5084874;28;968;-59
2023/08/17 03:13:59;;;;;;;;;;;;;;;16.56;54.42;100648.88;5087560;28;1078;-59
2023/08/17 03:16:27;;;;;;;;;;;;;;;16.57;54.24;100645.03;5077669;28;1222;-53
2023/08/17 03:18:52;;;;;;;;;;;;;;;16.53;54.35;100649.44;5068493;28;1484;-55
2023/08/17 03:21:19;;;;;;;;;;;;;;;16.56;54.34;100654.34;5074508;28;1309;-54
2023/08/17 03:23:45;;;;;;;;;;;;;;;16.56;54.26;100651.63;5061238;28;1106;-52
2023/08/17 03:26:11;;;;;;;;;;;;;;;16.55;54.15;100653.53;5061321;28;1902;-56
2023/08/17 03:28:37;;;;;;;;;;;;;;;16.48;54.26;100657.66;5060955;28;1527;-54
2023/08/17 03:31:03;;;;;;;;;;;;;;;16.53;54.22;100660.41;5080230;28;1194;-56
2023/08/17 03:33:29;;;;;;;;;;;;;;;16.50;54.29;100655.47;5080036;28;1534;-51
2023/08/17 03:35:54;;;;;;;;;;;;;;;16.50;54.32;100655.47;5068904;28;1091;-55
2023/08/17 03:38:20;;;;;;;;;;;;;;;16.50;54.04;100653.53;5084442;28;1106;-52
2023/08/17 03:40:46;;;;;;;;;;;;;;;16.51;54.25;100665.34;5068155;28;1230;-52
2023/08/17 03:43:12;;;;;;;;;;;;;;;16.52;54.02;100661.50;5097250;28;1070;-51
2023/08/17 03:45:37;;;;;;;;;;;;;;;16.52;53.96;100666.97;5086886;28;995;-50
2023/08/17 03:48:04;;;;;;;;;;;;;;;16.55;54.13;100669.19;5093893;28;1976;-56
2023/08/17 03:50:29;;;;;;;;;;;;;;;16.50;54.34;100671.94;5079702;28;1207;-53
2023/08/17 03:52:55;;;;;;;;;;;;;;;16.64;54.70;100673.03;5085057;28;1075;-55
2023/08/17 03:55:21;;;;;;;;;;;;;;;16.86;56.39;100674.66;5090376;28;1270;-52
2023/08/17 03:57:46;;;;;;;;;;;;;;;16.90;57.34;100676.59;5095074;28;1374;-53
2023/08/17 04:00:12;;;;;;;;;;;;;;;17.00;57.91;100674.88;5088722;28;1074;-50
2023/08/17 04:02:40;;;;;;;;;;;;;;;16.98;57.94;100682.59;5098269;28;1014;-50
2023/08/17 04:05:07;;;;;;;;;;;;;;;17.03;58.09;100686.16;5080105;28;1305;-52
2023/08/17 04:07:32;;;;;;;;;;;;;;;17.08;58.06;100694.41;5098807;28;1909;-52
2023/08/17 04:09:58;;;;;;;;;;;;;;;17.12;57.97;100693.84;5098197;28;1201;-52
2023/08/17 04:12:23;;;;;;;;;;;;;;;17.19;57.57;100686.13;5097854;28;1065;-55
2023/08/17 04:14:49;;;;;;;;;;;;;;;17.15;58.24;100696.00;5080107;28;1319;-51
2023/08/17 04:17:14;;;;;;;;;;;;;;;17.23;58.25;100693.50;5079055;28;1876;-54
2023/08/17 04:19:40;;;;;;;;;;;;;;;17.17;57.53;100700.13;5079263;28;1241;-50
2023/08/17 04:22:08;;;;;;;;;;;;;;;17.09;56.78;100701.50;5076807;28;1239;-52
2023/08/17 04:24:34;;;;;;;;;;;;;;;17.07;56.33;100697.44;5077364;28;1509;-51
2023/08/17 04:26:59;;;;;;;;;;;;;;;17.02;55.85;100694.69;5089977;28;1971;-52
2023/08/17 04:29:25;;;;;;;;;;;;;;;16.98;55.79;100694.41;5075856;28;1332;-53
2023/08/17 04:31:51;;;;;;;;;;;;;;;16.95;55.62;100705.94;5077878;28;1142;-52
2023/08/17 04:34:16;;;;;;;;;;;;;;;16.95;55.38;100702.41;5080059;28;1110;-56
2023/08/17 04:36:42;;;;;;;;;;;;;;;16.91;55.11;100704.84;5096530;28;839;-56
2023/08/17 04:39:09;;;;;;;;;;;;;;;16.91;55.19;100702.13;5080809;28;2699;-54
2023/08/17 04:41:34;;;;;;;;;;;;;;;16.83;55.18;100700.75;5079306;28;1618;-56
2023/08/17 04:44:02;;;;;;;;;;;;;;;16.85;55.18;100698.53;5078974;28;1643;-53
2023/08/17 04:46:29;;;;;;;;;;;;;;;17.66;57.00;100695.81;5097539;28;1906;-53
2023/08/17 04:48:55;;;;;;;;;;;;;;;17.05;56.35;100708.66;5078825;28;1293;-53
2023/08/17 04:51:21;;;;;;;;;;;;;;;16.89;54.04;100713.38;5073360;28;1306;-52
2023/08/17 04:53:46;;;;;;;;;;;;;;;16.80;52.80;100705.94;5097070;28;979;-52
2023/08/17 04:56:12;;;;;;;;;;;;;;;16.68;51.79;100701.56;5097375;28;1173;-48
2023/08/17 04:58:38;;;;;;;;;;;;;;;16.80;50.62;100708.69;5096600;28;1019;-55
2023/08/17 05:01:04;;;;;;;;;;;;;;;16.98;52.05;100693.59;5078680;28;1096;-51
2023/08/17 05:03:31;;;;;;;;;;;;;;;17.19;52.51;100692.41;5078684;28;1242;-54
2023/08/17 05:05:56;;;;;;;;;;;;;;;16.98;51.84;100686.16;5097184;28;1050;-52
2023/08/17 05:08:22;;;;;;;;;;;;;;;16.91;50.79;100682.88;5076642;28;2335;-46
2023/08/17 05:10:48;;;;;;;;;;;;;;;16.99;49.78;100685.06;5071582;28;1265;-53
2023/08/17 05:13:14;;;;;;;;;;;;;;;16.89;49.68;100685.09;5084994;28;1101;-53
2023/08/17 05:15:39;;;;;;;;;;;;;;;16.95;49.13;100683.97;5078935;28;1355;-48
2023/08/17 05:18:07;;;;;;;;;;;;;;;16.97;48.55;100680.94;5078584;28;1429;-48
2023/08/17 05:20:33;;;;;;;;;;;;;;;16.90;48.79;100682.06;5078666;28;1099;-55
2023/08/17 05:22:58;;;;;;;;;;;;;;;16.98;48.38;100680.66;5078534;28;1055;-55
2023/08/17 05:25:26;;;;;;;;;;;;;;;16.94;48.51;100682.31;5096266;28;948;-48
2023/08/17 05:27:52;;;;;;;;;;;;;;;17.57;50.18;100676.34;5078107;28;1905;-48
2023/08/17 05:30:17;;;;;;;;;;;;;;;17.29;49.95;100683.31;5096512;28;998;-54
2023/08/17 05:32:43;;;;;;;;;;;;;;;17.14;49.51;100681.47;5096693;28;1299;-47
2023/08/17 05:35:08;;;;;;;;;;;;;;;17.18;48.90;100682.56;5077524;28;1296;-45
2023/08/17 05:37:35;;;;;;;;;;;;;;;17.27;48.42;100683.59;5064567;28;1234;-52
2023/08/17 05:40:00;;;;;;;;;;;;;;;17.14;48.64;100683.38;5077984;28;2692;-50
2023/08/17 05:42:26;;;;;;;;;;;;;;;17.18;48.21;100684.47;5096159;28;1106;-48
2023/08/17 05:44:51;;;;;;;;;;;;;;;17.22;47.84;100688.28;5071470;28;1460;-49
2023/08/17 05:47:18;;;;;;;;;;;;;;;17.19;47.77;100686.13;5085815;28;1914;-52
2023/08/17 05:49:44;;;;;;;;;;;;;;;17.19;47.83;100681.44;5090118;28;864;-55
2023/08/17 05:52:10;;;;;;;;;;;;;;;17.16;48.00;100692.16;5096053;28;1130;-52
2023/08/17 05:54:35;;;;;;;;;;;;;;;17.27;47.58;100691.84;5095951;28;1192;-54
2023/08/17 05:57:01;;;;;;;;;;;;;;;17.21;47.77;100695.72;5095971;28;1110;-53
2023/08/17 05:59:27;;;;;;;;;;;;;;;17.26;47.71;100683.88;5096455;28;1248;-52
2023/08/17 06:01:52;;;;;;;;;;;;;;;17.28;47.84;100681.69;5086062;28;1034;-53
2023/08/17 06:04:18;;;;;;;;;;;;;;;17.23;47.47;100681.69;5095347;28;1062;-50
2023/08/17 06:06:43;;;;;;;;;;;;;;;17.23;47.67;100684.44;5095313;28;1964;-51
2023/08/17 06:09:09;;;;;;;;;;;;;;;17.22;47.64;100686.38;5078123;28;2160;-45
2023/08/17 06:11:34;;;;;;;;;;;;;;;17.28;47.47;100689.94;5094172;28;1132;-48
2023/08/17 06:14:00;;;;;;;;;;;;;;;17.33;47.31;100684.41;5083719;28;1278;-52
2023/08/17 06:16:25;;;;;;;;;;;;;;;17.20;47.93;100688.56;5086675;28;1514;-47
2023/08/17 06:18:51;;;;;;;;;;;;;;;17.24;47.88;100677.84;5095493;28;1103;-53
2023/08/17 06:21:16;;;;;;;;;;;;;;;17.31;47.68;100677.56;5096030;28;1082;-50
2023/08/17 06:23:42;;;;;;;;;;;;;;;17.33;47.57;100686.34;5095585;28;1291;-54
2023/08/17 06:26:07;;;;;;;;;;;;;;;17.38;47.54;100686.31;5094877;28;1901;-54
2023/08/17 06:28:33;;;;;;;;;;;;;;;17.38;47.73;100694.56;5083670;28;1326;-53
2023/08/17 06:30:58;;;;;;;;;;;;;;;17.44;47.55;100686.00;5087518;28;1482;-52
2023/08/17 06:33:24;;;;;;;;;;;;;;;17.41;47.99;100685.75;5085048;28;1039;-53
2023/08/17 06:35:50;;;;;;;;;;;;;;;17.44;47.80;100690.69;5092518;28;1115;-54
2023/08/17 06:38:15;;;;;;;;;;;;;;;17.46;47.72;100688.50;5092371;28;2310;-54
2023/08/17 06:40:41;;;;;;;;;;;;;;;17.50;47.62;100681.34;5089841;28;1394;-54
2023/08/17 06:43:06;;;;;;;;;;;;;;;17.55;47.70;100680.47;5094355;28;1258;-54
2023/08/17 06:45:32;;;;;;;;;;;;;;;17.67;47.75;100677.38;5093157;28;1390;-53
2023/08/17 06:47:58;;;;;;;;;;;;;;;17.54;47.90;100684.31;5094210;28;1988;-50
2023/08/17 06:50:23;;;;;;;;;;;;;;;17.50;47.93;100683.25;5095294;28;1241;-48
2023/08/17 06:52:49;;;;;;;;;;;;;;;17.70;47.46;100677.66;5094852;28;1245;-56
2023/08/17 06:55:15;;;;;;;;;;;;;;;17.54;47.95;100679.63;5094965;28;1238;-52
2023/08/17 06:57:41;;;;;;;;;;;;;;;17.62;47.85;100681.00;5091569;28;1369;-52
2023/08/17 07:00:07;;;;;;;;;;;;;;;17.58;47.71;100679.91;5094417;28;1145;-49
2023/08/17 07:02:34;;;;;;;;;;;;;;;17.63;47.72;100679.88;5095431;28;1277;-47
2023/08/17 07:05:00;;;;;;;;;;;;;;;17.63;47.67;100696.38;5094960;28;1214;-52
2023/08/17 07:07:25;;;;;;;;;;;;;;;17.61;47.78;100690.34;5095050;28;1909;-50
2023/08/17 07:09:51;;;;;;;;;;;;;;;17.68;47.59;100712.03;5094856;28;2544;-52
2023/08/17 07:12:16;;;;;;;;;;;;;;;17.72;47.43;100700.16;5094482;28;1169;-52
2023/08/17 07:14:42;;;;;;;;;;;;;;;17.60;47.79;100717.00;5095064;28;1042;-52
2023/08/17 07:17:07;;;;;;;;;;;;;;;17.67;47.86;100711.22;5096854;28;1114;-52
2023/08/17 07:19:33;;;;;;;;;;;;;;;17.78;47.54;100706.47;5098666;28;1214;-49
2023/08/17 07:21:58;;;;;;;;;;;;;;;17.62;47.69;100697.47;5099105;28;1258;-50
2023/08/17 07:24:24;;;;;;;;;;;;;;;17.77;47.58;100702.91;5098462;28;908;-51
2023/08/17 07:26:50;;;;;;;;;;;;;;;17.75;47.76;100707.88;5077633;28;1938;-50
2023/08/17 07:29:15;;;;;;;;;;;;;;;17.79;47.40;100708.97;5099158;28;1059;-52
2023/08/17 07:31:41;;;;;;;;;;;;;;;17.77;47.79;100704.84;5098990;28;1122;-54
2023/08/17 07:34:06;;;;;;;;;;;;;;;17.85;47.52;100703.41;5098967;28;1241;-54
2023/08/17 07:36:32;;;;;;;;;;;;;;;17.84;47.49;100724.59;5096224;28;1256;-55
2023/08/17 07:38:58;;;;;;;;;;;;;;;17.79;47.57;100714.47;5089926;28;2379;-54
2023/08/17 07:41:23;;;;;;;;;;;;;;;17.85;47.51;100715.25;5098309;28;1126;-55
2023/08/17 07:43:49;;;;;;;;;;;;;;;17.84;47.63;100713.59;5099115;28;1283;-54
2023/08/17 07:46:15;;;;;;;;;;;;;;;17.83;47.46;100708.38;5098126;28;1898;-50
2023/08/17 07:48:40;;;;;;;;;;;;;;;17.92;47.58;100710.28;5099337;28;1280;-53
2023/08/17 07:51:06;;;;;;;;;;;;;;;17.90;47.52;100706.13;5098411;28;1383;-55
2023/08/17 07:53:31;;;;;;;;;;;;;;;17.94;47.44;100710.00;5099060;28;1292;-52
2023/08/17 07:55:56;;;;;;;;;;;;;;;17.91;47.54;100699.56;5097656;28;1230;-52
2023/08/17 07:58:22;;;;;;;;;;;;;;;17.88;47.60;100700.94;5085162;28;1695;-51
2023/08/17 08:00:47;;;;;;;;;;;;;;;17.98;47.35;100710.22;5097963;28;1260;-48
2023/08/17 08:03:14;;;;;;;;;;;;;;;17.99;47.35;100704.44;5098969;28;1138;-45
2023/08/17 08:05:39;;;;;;;;;;;;;;;17.88;47.67;100708.34;5098598;28;1304;-50
2023/08/17 08:08:05;;;;;;;;;;;;;;;17.90;47.40;100697.88;5098325;28;1909;-51
2023/08/17 08:10:30;;;;;;;;;;;;;;;18.01;47.40;100709.69;5097663;28;2603;-52
2023/08/17 08:12:56;;;;;;;;;;;;;;;18.00;47.44;100708.03;5097899;28;1102;-52
2023/08/17 08:15:21;;;;;;;;;;;;;;;17.98;47.43;100712.97;5097835;28;1171;-52
2023/08/17 08:17:47;;;;;;;;;;;;;;;17.94;47.57;100699.81;5097832;28;1230;-51
2023/08/17 08:20:12;;;;;;;;;;;;;;;18.00;47.56;100706.09;5097643;28;1011;-52
2023/08/17 08:22:38;;;;;;;;;;;;;;;18.01;47.48;100716.00;5098359;28;1066;-51
2023/08/17 08:25:03;;;;;;;;;;;;;;;18.08;47.46;100702.75;5093424;28;1382;-55
2023/08/17 08:27:29;;;;;;;;;;;;;;;18.09;47.61;100712.66;5084049;28;1913;-53
2023/08/17 08:29:54;;;;;;;;;;;;;;;18.02;47.88;100714.91;5090873;28;1374;-53
2023/08/17 08:32:20;;;;;;;;;;;;;;;18.02;47.99;100708.56;5094632;28;1210;-53
2023/08/17 08:34:45;;;;;;;;;;;;;;;18.06;47.86;100699.47;5091015;28;1047;-53
2023/08/17 08:37:11;;;;;;;;;;;;;;;18.12;47.61;100701.06;5096021;28;1228;-53
2023/08/17 08:39:50;;;;;;;;;;;;;;;18.07;47.96;100692.84;5083238;28;1864;-53
2023/08/17 08:42:16;;;;;;;;;;;;;;;18.07;47.99;100700.28;5085758;28;1110;-54
2023/08/17 08:44:41;;;;;;;;;;;;;;;18.13;47.86;100708.22;5096305;28;1354;-52
2023/08/17 08:47:06;;;;;;;;;;;;;;;18.12;47.85;100698.31;5090413;28;1922;-50
2023/08/17 08:49:32;;;;;;;;;;;;;;;18.13;47.92;100699.97;5079597;28;1113;-50
2023/08/17 08:51:59;;;;;;;;;;;;;;;18.17;48.04;100688.38;5074143;28;1300;-51
2023/08/17 08:54:24;;;;;;;;;;;;;;;18.29;47.67;100691.59;5079970;28;1079;-47
2023/08/17 08:56:51;;;;;;;;;;;;;;;18.26;47.83;100694.94;5074417;28;1451;-52
2023/08/17 08:59:18;;;;;;;;;;;;;;;18.29;47.71;100689.66;5093400;28;1122;-49
2023/08/17 09:01:44;;;;;;;;;;;;;;;18.22;47.95;100691.09;5074595;28;1351;-53
2023/08/17 09:04:09;;;;;;;;;;;;;;;18.21;47.81;100704.03;5067542;28;1244;-50
2023/08/17 09:06:35;;;;;;;;;;;;;;;18.17;47.89;100707.66;5077639;28;1917;-47
2023/08/17 09:09:01;;;;;;;;;;;;;;;18.33;47.69;100711.09;5078801;28;1836;-50
2023/08/17 09:11:26;;;;;;;;;;;;;;;18.20;47.83;100696.06;5096545;28;1205;-49
2023/08/17 09:13:52;;;;;;;;;;;;;;;18.29;47.90;100694.34;5089000;28;1256;-47
2023/08/17 09:16:18;;;;;;;;;;;;;;;18.27;47.80;100713.06;5096496;28;1526;-53
2023/08/17 09:18:43;;;;;;;;;;;;;;;18.30;47.48;100704.25;5096648;28;1197;-52
2023/08/17 09:21:09;;;;;;;;;;;;;;;18.23;47.96;100698.22;5079300;28;1193;-52
2023/08/17 09:23:34;;;;;;;;;;;;;;;18.50;48.21;100702.44;5077559;28;1174;-52
2023/08/17 09:26:00;;;;;;;;;;;;;;;18.37;48.20;100702.00;5094840;28;877;-51
2023/08/17 09:28:25;;;;;;;;;;;;;;;18.42;48.04;100698.38;5076730;28;1980;-53
2023/08/17 09:30:54;;;;;;;;;;;;;;;18.40;47.95;100706.13;5095170;28;1384;-54
2023/08/17 09:33:22;;;;;;;;;;;;;;;18.34;48.05;100710.84;5092802;28;1515;-55
2023/08/17 09:35:51;;;;;;;;;;;;;;;18.37;47.99;100702.00;5096424;28;1221;-54
2023/08/17 09:38:17;;;;;;;;;;;;;;;18.36;47.87;100700.34;5095197;28;1903;-53
2023/08/17 09:40:43;;;;;;;;;;;;;;;18.40;47.69;100698.66;5096766;28;1218;-50
2023/08/17 09:43:09;;;;;;;;;;;;;;;18.36;47.69;100705.84;5096819;28;1010;-54
2023/08/17 09:45:35;;;;;;;;;;;;;;;18.46;47.58;100700.25;5097169;28;1109;-54
2023/08/17 09:48:00;;;;;;;;;;;;;;;18.45;47.60;100698.63;5079154;28;1910;-55
2023/08/17 09:50:26;;;;;;;;;;;;;;;18.54;47.65;100700.75;5078742;28;1118;-55
2023/08/17 09:52:54;;;;;;;;;;;;;;;18.45;47.50;100698.63;5097159;28;1222;-51
2023/08/17 09:55:20;;;;;;;;;;;;;;;18.38;47.96;100703.63;5096567;28;1142;-54
2023/08/17 09:57:46;;;;;;;;;;;;;;;18.55;47.34;100703.22;5095164;28;1335;-53
2023/08/17 10:00:11;;;;;;;;;;;;;;;18.46;47.40;100705.75;5093796;28;1019;-52
2023/08/17 10:02:37;;;;;;;;;;;;;;;18.52;47.46;100708.47;5096180;28;1100;-53
2023/08/17 10:05:02;;;;;;;;;;;;;;;18.46;47.51;100705.75;5096402;28;1042;-53
2023/08/17 10:07:29;;;;;;;;;;;;;;;18.46;47.43;100702.19;5079204;28;1975;-53
2023/08/17 10:09:56;;;;;;;;;;;;;;;18.48;47.21;100702.72;5078222;28;1086;-52
2023/08/17 10:12:23;;;;;;;;;;;;;;;18.46;47.42;100694.75;5083308;28;1312;-52
2023/08/17 10:14:54;;;;;;;;;;;;;;;18.53;47.29;100694.41;5096183;28;1169;-54
2023/08/17 10:17:21;;;;;;;;;;;;;;;18.54;47.10;100696.06;5096440;28;1149;-53
2023/08/17 10:19:51;;;;;;;;;;;;;;;18.58;47.42;100693.53;5096477;28;1043;-54
2023/08/17 10:22:17;;;;;;;;;;;;;;;18.50;47.43;100696.94;5078615;28;1395;-52
2023/08/17 10:24:42;;;;;;;;;;;;;;;18.57;47.38;100691.91;5090785;28;1522;-53
2023/08/17 10:27:08;;;;;;;;;;;;;;;18.54;47.44;100687.81;5095149;28;1968;-49
2023/08/17 10:29:33;;;;;;;;;;;;;;;18.58;47.14;100697.13;5088684;28;1414;-50
2023/08/17 10:32:00;;;;;;;;;;;;;;;18.55;47.10;100680.34;5062120;28;1361;-54
2023/08/17 10:34:25;;;;;;;;;;;;;;;18.53;47.29;100677.09;5089374;28;1287;-51
2023/08/17 10:36:51;;;;;;;;;;;;;;;18.58;47.16;100686.13;5075279;28;1131;-50
2023/08/17 10:39:23;;;;;;;;;;;;;;;18.67;47.14;100689.06;5075779;28;1257;-55
2023/08/17 10:41:49;;;;;;;;;;;;;;;18.54;47.49;100689.75;5060619;28;1126;-51
2023/08/17 10:44:14;;;;;;;;;;;;;;;18.54;47.10;100687.00;5078024;28;1284;-53
2023/08/17 10:46:40;;;;;;;;;;;;;;;18.67;47.05;100680.81;5095324;28;1969;-53
2023/08/17 10:49:06;;;;;;;;;;;;;;;18.67;46.79;100689.06;5094742;28;1303;-56
2023/08/17 10:51:32;;;;;;;;;;;;;;;18.61;47.04;100690.22;5097372;28;1222;-53
2023/08/17 10:54:02;;;;;;;;;;;;;;;18.58;47.31;100685.28;5099116;28;1244;-52
2023/08/17 10:56:28;;;;;;;;;;;;;;;18.68;47.18;100693.47;5095962;28;1210;-54
2023/08/17 10:58:53;;;;;;;;;;;;;;;18.64;47.29;100684.94;5099419;28;1311;-48
2023/08/17 11:01:35;;;;;;;;;;;;;;;18.62;47.19;100686.34;5099247;28;1362;-53
2023/08/17 11:04:11;;;;;;;;;;;;;;;18.67;47.39;100689.06;5098747;28;1727;-48
2023/08/17 11:06:36;;;;;;;;;;;;;;;18.55;47.65;100674.84;5098469;28;1905;-53
2023/08/17 11:09:05;;;;;;;;;;;;;;;18.65;47.36;100677.53;5098303;28;1288;-52
2023/08/17 11:11:31;;;;;;;;;;;;;;;18.76;47.09;100680.97;5099305;28;1267;-50
2023/08/17 11:13:57;;;;;;;;;;;;;;;18.71;47.28;100684.63;5098673;28;1374;-52
2023/08/17 11:16:23;;;;;;;;;;;;;;;18.70;47.29;100682.16;5097443;28;1505;-55
2023/08/17 11:18:49;;;;;;;;;;;;;;;18.72;47.19;100678.00;5099529;28;1359;-54
2023/08/17 11:21:15;;;;;;;;;;;;;;;18.69;47.09;100678.59;5099401;28;1094;-49
2023/08/17 11:23:40;;;;;;;;;;;;;;;18.75;47.01;100685.69;5081682;28;1083;-50
2023/08/17 11:26:07;;;;;;;;;;;;;;;18.71;47.34;100690.13;5099560;28;1518;-55
2023/08/17 11:28:36;;;;;;;;;;;;;;;18.73;46.86;100676.91;5097607;28;1905;-53
2023/08/17 11:31:02;;;;;;;;;;;;;;;18.67;47.27;100686.31;5098788;28;1046;-51
2023/08/17 11:33:28;;;;;;;;;;;;;;;18.79;46.76;100678.47;5099020;28;1225;-56
2023/08/17 11:36:02;;;;;;;;;;;;;;;18.73;46.83;100687.91;5098993;28;1042;-56
2023/08/17 11:38:35;;;;;;;;;;;;;;;18.69;46.96;100677.75;5099368;28;1077;-53
2023/08/17 11:41:00;;;;;;;;;;;;;;;18.68;47.29;100687.97;5081451;28;1134;-53
2023/08/17 11:43:27;;;;;;;;;;;;;;;18.75;46.84;100685.69;5099430;28;1097;-56
2023/08/17 11:45:52;;;;;;;;;;;;;;;18.73;47.14;100689.84;5095957;28;1091;-54
2023/08/17 11:48:21;;;;;;;;;;;;;;;18.69;47.16;100692.38;5080448;28;1906;-51
2023/08/17 11:50:46;;;;;;;;;;;;;;;18.69;47.15;100686.84;5098764;28;1106;-50
2023/08/17 11:53:12;;;;;;;;;;;;;;;18.73;46.97;100681.56;5098584;28;1232;-49
2023/08/17 11:55:37;;;;;;;;;;;;;;;18.75;47.20;100696.69;5096290;28;1415;-50
2023/08/17 11:58:03;;;;;;;;;;;;;;;18.77;47.11;100686.19;5100020;28;1328;-53
2023/08/17 12:00:34;;;;;;;;;;;;;;;18.73;46.92;100687.06;5097210;28;1170;-48
2023/08/17 12:02:59;;;;;;;;;;;;;;;18.77;47.10;100685.38;5086530;28;1090;-53
2023/08/17 12:05:27;;;;;;;;;;;;;;;18.76;47.01;100679.06;5098088;28;858;-53
2023/08/17 12:07:53;;;;;;;;;;;;;;;18.77;46.93;100685.38;5098773;28;1921;-53
2023/08/17 12:10:19;;;;;;;;;;;;;;;18.77;47.01;100688.16;5096458;28;1162;-53
2023/08/17 12:12:46;;;;;;;;;;;;;;;18.77;46.93;100677.94;5098231;28;1190;-52
2023/08/17 12:15:11;;;;;;;;;;;;;;;18.82;46.76;100682.59;5098104;28;1170;-52
2023/08/17 12:17:41;;;;;;;;;;;;;;;18.77;47.09;100683.44;5098068;28;1233;-53
2023/08/17 12:20:06;;;;;;;;;;;;;;;18.81;46.81;100684.50;5085143;28;1132;-53
2023/08/17 12:22:32;;;;;;;;;;;;;;;18.87;46.71;100687.22;5098379;28;1070;-54
2023/08/17 12:24:57;;;;;;;;;;;;;;;18.83;46.66;100688.91;5097995;28;1264;-49
2023/08/17 12:27:24;;;;;;;;;;;;;;;18.79;47.02;100692.25;5097967;28;1968;-51
2023/08/17 12:29:49;;;;;;;;;;;;;;;18.72;47.12;100683.50;5084537;28;1169;-53
2023/08/17 12:32:15;;;;;;;;;;;;;;;18.76;47.01;100687.34;5086073;28;1011;-54
2023/08/17 12:34:41;;;;;;;;;;;;;;;18.79;47.15;100689.50;5098475;28;1184;-53
2023/08/17 12:37:08;;;;;;;;;;;;;;;18.78;47.30;100689.78;5097827;28;1130;-49
2023/08/17 12:39:33;;;;;;;;;;;;;;;18.75;47.04;100684.88;5097992;28;1050;-54
2023/08/17 12:41:59;;;;;;;;;;;;;;;18.77;47.18;100682.63;5097602;28;1145;-55